sensor_id;sensor_type;location;lat;lon;timestamp;P1;durP1;ratioP1;P2;durP2;ratioP2
76380;SDS011;65202;52.520;10.528;2023-06-24T00:02:22;16.17;;;12.13;;
76380;SDS011;65202;52.520;10.528;2023-06-24T00:04:51;15.82;;;11.57;;
76380;SDS011;65202;52.520;10.528;2023-06-24T00:07:21;16.50;;;11.82;;
76380;SDS011;65202;52.520;10.528;2023-06-24T00:09:49;15.98;;;12.52;;
76380;SDS011;65202;52.520;10.528;2023-06-24T00:12:16;18.52;;;12.45;;
76380;SDS011;65202;52.520;10.528;2023-06-24T00:14:46;18.33;;;13.07;;
76380;SDS011;65202;52.520;10.528;2023-06-24T00:17:14;17.88;;;12.88;;
76380;SDS011;65202;52.520;10.528;2023-06-24T00:19:42;20.50;;;11.95;;
76380;SDS011;65202;52.520;10.528;2023-06-24T00:22:10;16.27;;;11.80;;
76380;SDS011;65202;52.520;10.528;2023-06-24T00:24:41;16.13;;;12.43;;
76380;SDS011;65202;52.520;10.528;2023-06-24T00:27:14;20.98;;;11.77;;
76380;SDS011;65202;52.520;10.528;2023-06-24T00:29:41;18.98;;;11.68;;
76380;SDS011;65202;52.520;10.528;2023-06-24T00:32:09;17.58;;;12.00;;
76380;SDS011;65202;52.520;10.528;2023-06-24T00:34:36;16.10;;;11.77;;
76380;SDS011;65202;52.520;10.528;2023-06-24T00:37:06;20.25;;;12.32;;
76380;SDS011;65202;52.520;10.528;2023-06-24T00:39:33;17.95;;;11.48;;
76380;SDS011;65202;52.520;10.528;2023-06-24T00:42:00;17.88;;;12.02;;
76380;SDS011;65202;52.520;10.528;2023-06-24T00:44:28;20.48;;;11.82;;
76380;SDS011;65202;52.520;10.528;2023-06-24T00:46:55;21.88;;;12.20;;
76380;SDS011;65202;52.520;10.528;2023-06-24T00:49:23;18.92;;;11.55;;
76380;SDS011;65202;52.520;10.528;2023-06-24T00:51:50;18.50;;;11.88;;
76380;SDS011;65202;52.520;10.528;2023-06-24T00:54:17;22.65;;;12.70;;
76380;SDS011;65202;52.520;10.528;2023-06-24T00:56:45;21.45;;;11.90;;
76380;SDS011;65202;52.520;10.528;2023-06-24T00:59:14;22.13;;;12.43;;
76380;SDS011;65202;52.520;10.528;2023-06-24T01:01:43;25.05;;;12.95;;
76380;SDS011;65202;52.520;10.528;2023-06-24T01:04:12;22.30;;;14.10;;
76380;SDS011;65202;52.520;10.528;2023-06-24T01:06:40;23.10;;;15.15;;
76380;SDS011;65202;52.520;10.528;2023-06-24T01:09:11;27.25;;;15.52;;
76380;SDS011;65202;52.520;10.528;2023-06-24T01:11:39;23.02;;;14.77;;
76380;SDS011;65202;52.520;10.528;2023-06-24T01:14:07;24.73;;;14.20;;
76380;SDS011;65202;52.520;10.528;2023-06-24T01:26:08;20.38;;;12.43;;
76380;SDS011;65202;52.520;10.528;2023-06-24T01:34:56;15.68;;;12.07;;
76380;SDS011;65202;52.520;10.528;2023-06-24T01:37:36;16.02;;;12.10;;
76380;SDS011;65202;52.520;10.528;2023-06-24T01:42:37;23.77;;;12.90;;
76380;SDS011;65202;52.520;10.528;2023-06-24T01:45:09;21.83;;;12.20;;
76380;SDS011;65202;52.520;10.528;2023-06-24T01:47:43;21.42;;;13.05;;
76380;SDS011;65202;52.520;10.528;2023-06-24T01:50:14;18.55;;;13.07;;
76380;SDS011;65202;52.520;10.528;2023-06-24T01:52:48;19.25;;;12.50;;
76380;SDS011;65202;52.520;10.528;2023-06-24T01:55:19;22.58;;;12.88;;
76380;SDS011;65202;52.520;10.528;2023-06-24T01:57:49;21.80;;;12.85;;
76380;SDS011;65202;52.520;10.528;2023-06-24T02:00:19;17.95;;;11.95;;
76380;SDS011;65202;52.520;10.528;2023-06-24T02:02:48;19.42;;;12.30;;
76380;SDS011;65202;52.520;10.528;2023-06-24T02:05:18;18.42;;;12.98;;
76380;SDS011;65202;52.520;10.528;2023-06-24T02:07:47;19.15;;;12.77;;
76380;SDS011;65202;52.520;10.528;2023-06-24T02:10:18;19.63;;;13.48;;
76380;SDS011;65202;52.520;10.528;2023-06-24T02:12:49;24.95;;;12.75;;
76380;SDS011;65202;52.520;10.528;2023-06-24T02:15:20;17.47;;;13.53;;
76380;SDS011;65202;52.520;10.528;2023-06-24T02:17:50;19.35;;;13.85;;
76380;SDS011;65202;52.520;10.528;2023-06-24T02:20:23;20.80;;;14.52;;
76380;SDS011;65202;52.520;10.528;2023-06-24T02:22:56;21.35;;;14.10;;
76380;SDS011;65202;52.520;10.528;2023-06-24T02:25:26;23.08;;;15.02;;
76380;SDS011;65202;52.520;10.528;2023-06-24T02:27:55;23.77;;;15.27;;
76380;SDS011;65202;52.520;10.528;2023-06-24T02:30:23;26.42;;;15.90;;
76380;SDS011;65202;52.520;10.528;2023-06-24T02:32:51;19.00;;;14.70;;
76380;SDS011;65202;52.520;10.528;2023-06-24T02:35:21;18.70;;;15.05;;
76380;SDS011;65202;52.520;10.528;2023-06-24T02:37:48;21.35;;;15.25;;
76380;SDS011;65202;52.520;10.528;2023-06-24T02:40:16;20.55;;;14.68;;
76380;SDS011;65202;52.520;10.528;2023-06-24T02:42:43;21.88;;;14.82;;
76380;SDS011;65202;52.520;10.528;2023-06-24T02:45:10;20.83;;;15.15;;
76380;SDS011;65202;52.520;10.528;2023-06-24T02:47:41;18.45;;;14.90;;
76380;SDS011;65202;52.520;10.528;2023-06-24T02:50:13;21.08;;;14.50;;
76380;SDS011;65202;52.520;10.528;2023-06-24T02:52:42;21.85;;;14.38;;
76380;SDS011;65202;52.520;10.528;2023-06-24T02:55:09;17.67;;;14.00;;
76380;SDS011;65202;52.520;10.528;2023-06-24T02:57:38;17.83;;;13.65;;
76380;SDS011;65202;52.520;10.528;2023-06-24T03:00:07;19.27;;;14.43;;
76380;SDS011;65202;52.520;10.528;2023-06-24T03:02:40;19.83;;;14.70;;
76380;SDS011;65202;52.520;10.528;2023-06-24T03:05:19;20.58;;;14.73;;
76380;SDS011;65202;52.520;10.528;2023-06-24T03:07:46;22.98;;;14.23;;
76380;SDS011;65202;52.520;10.528;2023-06-24T03:10:13;22.60;;;15.43;;
76380;SDS011;65202;52.520;10.528;2023-06-24T03:12:42;20.23;;;15.10;;
76380;SDS011;65202;52.520;10.528;2023-06-24T03:15:09;23.08;;;15.35;;
76380;SDS011;65202;52.520;10.528;2023-06-24T03:17:36;18.50;;;14.60;;
76380;SDS011;65202;52.520;10.528;2023-06-24T03:20:04;23.75;;;16.00;;
76380;SDS011;65202;52.520;10.528;2023-06-24T03:22:34;21.73;;;15.60;;
76380;SDS011;65202;52.520;10.528;2023-06-24T03:25:01;24.30;;;15.82;;
76380;SDS011;65202;52.520;10.528;2023-06-24T03:27:29;24.63;;;16.00;;
76380;SDS011;65202;52.520;10.528;2023-06-24T03:29:58;20.35;;;15.30;;
76380;SDS011;65202;52.520;10.528;2023-06-24T03:32:25;20.33;;;15.50;;
76380;SDS011;65202;52.520;10.528;2023-06-24T03:34:52;22.88;;;16.10;;
76380;SDS011;65202;52.520;10.528;2023-06-24T03:37:19;21.73;;;16.58;;
76380;SDS011;65202;52.520;10.528;2023-06-24T03:39:47;22.30;;;15.73;;
76380;SDS011;65202;52.520;10.528;2023-06-24T03:42:14;21.52;;;15.90;;
76380;SDS011;65202;52.520;10.528;2023-06-24T03:44:41;24.02;;;16.25;;
76380;SDS011;65202;52.520;10.528;2023-06-24T03:47:08;21.48;;;16.30;;
76380;SDS011;65202;52.520;10.528;2023-06-24T03:49:35;24.33;;;16.40;;
76380;SDS011;65202;52.520;10.528;2023-06-24T03:52:03;20.85;;;16.65;;
76380;SDS011;65202;52.520;10.528;2023-06-24T03:54:32;21.63;;;16.15;;
76380;SDS011;65202;52.520;10.528;2023-06-24T03:56:59;22.67;;;16.70;;
76380;SDS011;65202;52.520;10.528;2023-06-24T03:59:27;27.50;;;16.50;;
76380;SDS011;65202;52.520;10.528;2023-06-24T04:01:54;23.05;;;16.38;;
76380;SDS011;65202;52.520;10.528;2023-06-24T04:04:21;26.58;;;17.50;;
76380;SDS011;65202;52.520;10.528;2023-06-24T04:06:50;30.50;;;17.15;;
76380;SDS011;65202;52.520;10.528;2023-06-24T04:09:17;33.65;;;20.80;;
76380;SDS011;65202;52.520;10.528;2023-06-24T04:11:44;32.30;;;21.40;;
76380;SDS011;65202;52.520;10.528;2023-06-24T04:14:12;31.42;;;18.10;;
76380;SDS011;65202;52.520;10.528;2023-06-24T04:16:39;26.88;;;17.30;;
76380;SDS011;65202;52.520;10.528;2023-06-24T04:19:07;23.08;;;17.50;;
76380;SDS011;65202;52.520;10.528;2023-06-24T04:21:34;23.10;;;17.27;;
76380;SDS011;65202;52.520;10.528;2023-06-24T04:24:01;26.38;;;18.42;;
76380;SDS011;65202;52.520;10.528;2023-06-24T04:26:29;25.95;;;17.83;;
76380;SDS011;65202;52.520;10.528;2023-06-24T04:28:56;27.35;;;18.05;;
76380;SDS011;65202;52.520;10.528;2023-06-24T04:31:23;25.65;;;17.95;;
76380;SDS011;65202;52.520;10.528;2023-06-24T04:33:50;24.17;;;17.27;;
76380;SDS011;65202;52.520;10.528;2023-06-24T04:36:18;23.77;;;17.77;;
76380;SDS011;65202;52.520;10.528;2023-06-24T04:38:45;27.77;;;19.23;;
76380;SDS011;65202;52.520;10.528;2023-06-24T04:41:12;26.23;;;18.67;;
76380;SDS011;65202;52.520;10.528;2023-06-24T04:43:39;24.08;;;18.13;;
76380;SDS011;65202;52.520;10.528;2023-06-24T04:46:07;24.42;;;18.17;;
76380;SDS011;65202;52.520;10.528;2023-06-24T04:48:35;28.30;;;18.60;;
76380;SDS011;65202;52.520;10.528;2023-06-24T04:51:02;25.48;;;18.73;;
76380;SDS011;65202;52.520;10.528;2023-06-24T04:53:29;27.52;;;18.55;;
76380;SDS011;65202;52.520;10.528;2023-06-24T04:55:56;29.17;;;18.52;;
76380;SDS011;65202;52.520;10.528;2023-06-24T04:58:24;26.38;;;18.38;;
76380;SDS011;65202;52.520;10.528;2023-06-24T05:00:51;28.10;;;18.10;;
76380;SDS011;65202;52.520;10.528;2023-06-24T05:03:18;25.98;;;18.33;;
76380;SDS011;65202;52.520;10.528;2023-06-24T05:05:45;26.00;;;17.73;;
76380;SDS011;65202;52.520;10.528;2023-06-24T05:08:13;26.10;;;18.85;;
76380;SDS011;65202;52.520;10.528;2023-06-24T05:10:40;24.00;;;18.17;;
76380;SDS011;65202;52.520;10.528;2023-06-24T05:13:07;30.08;;;17.70;;
76380;SDS011;65202;52.520;10.528;2023-06-24T05:15:34;25.90;;;17.42;;
76380;SDS011;65202;52.520;10.528;2023-06-24T05:18:02;26.50;;;17.77;;
76380;SDS011;65202;52.520;10.528;2023-06-24T05:20:29;27.02;;;17.75;;
76380;SDS011;65202;52.520;10.528;2023-06-24T05:22:56;28.42;;;19.65;;
76380;SDS011;65202;52.520;10.528;2023-06-24T05:25:24;25.65;;;17.63;;
76380;SDS011;65202;52.520;10.528;2023-06-24T05:27:51;24.83;;;16.15;;
76380;SDS011;65202;52.520;10.528;2023-06-24T05:30:18;22.90;;;16.98;;
76380;SDS011;65202;52.520;10.528;2023-06-24T05:32:45;26.48;;;17.70;;
76380;SDS011;65202;52.520;10.528;2023-06-24T05:35:13;23.27;;;16.30;;
76380;SDS011;65202;52.520;10.528;2023-06-24T05:37:40;23.40;;;16.42;;
76380;SDS011;65202;52.520;10.528;2023-06-24T05:40:07;25.70;;;16.77;;
76380;SDS011;65202;52.520;10.528;2023-06-24T05:42:36;28.08;;;17.08;;
76380;SDS011;65202;52.520;10.528;2023-06-24T05:45:03;25.35;;;17.48;;
76380;SDS011;65202;52.520;10.528;2023-06-24T05:47:33;21.05;;;15.75;;
76380;SDS011;65202;52.520;10.528;2023-06-24T05:50:00;32.88;;;17.30;;
76380;SDS011;65202;52.520;10.528;2023-06-24T05:52:27;27.00;;;16.90;;
76380;SDS011;65202;52.520;10.528;2023-06-24T05:54:56;23.35;;;16.92;;
76380;SDS011;65202;52.520;10.528;2023-06-24T05:57:23;25.50;;;17.08;;
76380;SDS011;65202;52.520;10.528;2023-06-24T05:59:50;28.55;;;18.10;;
76380;SDS011;65202;52.520;10.528;2023-06-24T06:02:17;26.63;;;17.67;;
76380;SDS011;65202;52.520;10.528;2023-06-24T06:04:45;25.02;;;17.05;;
76380;SDS011;65202;52.520;10.528;2023-06-24T06:07:12;27.30;;;17.63;;
76380;SDS011;65202;52.520;10.528;2023-06-24T06:09:39;29.58;;;17.95;;
76380;SDS011;65202;52.520;10.528;2023-06-24T06:12:06;29.38;;;17.83;;
76380;SDS011;65202;52.520;10.528;2023-06-24T06:14:35;28.63;;;18.52;;
76380;SDS011;65202;52.520;10.528;2023-06-24T06:17:02;24.45;;;17.13;;
76380;SDS011;65202;52.520;10.528;2023-06-24T06:19:29;31.70;;;17.65;;
76380;SDS011;65202;52.520;10.528;2023-06-24T06:21:57;24.00;;;18.80;;
76380;SDS011;65202;52.520;10.528;2023-06-24T06:24:24;26.20;;;17.55;;
76380;SDS011;65202;52.520;10.528;2023-06-24T06:26:51;27.20;;;18.05;;
76380;SDS011;65202;52.520;10.528;2023-06-24T06:29:18;22.85;;;16.55;;
76380;SDS011;65202;52.520;10.528;2023-06-24T06:31:46;25.40;;;17.75;;
76380;SDS011;65202;52.520;10.528;2023-06-24T06:34:13;27.33;;;17.92;;
76380;SDS011;65202;52.520;10.528;2023-06-24T06:36:40;30.55;;;18.73;;
76380;SDS011;65202;52.520;10.528;2023-06-24T06:39:07;26.63;;;18.75;;
76380;SDS011;65202;52.520;10.528;2023-06-24T06:41:35;31.45;;;19.08;;
76380;SDS011;65202;52.520;10.528;2023-06-24T06:44:02;27.05;;;18.92;;
76380;SDS011;65202;52.520;10.528;2023-06-24T06:46:30;26.05;;;19.23;;
76380;SDS011;65202;52.520;10.528;2023-06-24T06:48:57;28.75;;;19.55;;
76380;SDS011;65202;52.520;10.528;2023-06-24T06:51:26;30.92;;;18.80;;
76380;SDS011;65202;52.520;10.528;2023-06-24T06:53:53;30.10;;;19.48;;
76380;SDS011;65202;52.520;10.528;2023-06-24T06:56:24;33.22;;;19.92;;
76380;SDS011;65202;52.520;10.528;2023-06-24T06:58:52;28.38;;;18.98;;
76380;SDS011;65202;52.520;10.528;2023-06-24T07:01:19;29.38;;;19.75;;
76380;SDS011;65202;52.520;10.528;2023-06-24T07:03:48;23.75;;;18.70;;
76380;SDS011;65202;52.520;10.528;2023-06-24T07:06:20;27.70;;;17.80;;
76380;SDS011;65202;52.520;10.528;2023-06-24T07:08:47;29.05;;;18.95;;
76380;SDS011;65202;52.520;10.528;2023-06-24T07:11:14;23.85;;;16.98;;
76380;SDS011;65202;52.520;10.528;2023-06-24T07:13:41;24.60;;;17.50;;
76380;SDS011;65202;52.520;10.528;2023-06-24T07:16:09;23.15;;;17.50;;
76380;SDS011;65202;52.520;10.528;2023-06-24T07:18:36;26.23;;;16.45;;
76380;SDS011;65202;52.520;10.528;2023-06-24T07:21:03;22.92;;;16.02;;
76380;SDS011;65202;52.520;10.528;2023-06-24T07:23:30;24.52;;;16.42;;
76380;SDS011;65202;52.520;10.528;2023-06-24T07:25:57;32.97;;;20.10;;
76380;SDS011;65202;52.520;10.528;2023-06-24T07:28:29;19.13;;;14.43;;
76380;SDS011;65202;52.520;10.528;2023-06-24T07:30:56;22.15;;;13.38;;
76380;SDS011;65202;52.520;10.528;2023-06-24T07:33:24;18.88;;;13.02;;
76380;SDS011;65202;52.520;10.528;2023-06-24T07:35:51;29.15;;;12.95;;
76380;SDS011;65202;52.520;10.528;2023-06-24T07:38:18;19.98;;;12.57;;
76380;SDS011;65202;52.520;10.528;2023-06-24T07:40:46;15.73;;;11.55;;
76380;SDS011;65202;52.520;10.528;2023-06-24T07:43:13;16.67;;;11.20;;
76380;SDS011;65202;52.520;10.528;2023-06-24T07:45:41;15.18;;;11.30;;
76380;SDS011;65202;52.520;10.528;2023-06-24T07:48:08;16.88;;;11.27;;
76380;SDS011;65202;52.520;10.528;2023-06-24T07:50:35;15.50;;;11.20;;
76380;SDS011;65202;52.520;10.528;2023-06-24T07:53:03;13.48;;;10.00;;
76380;SDS011;65202;52.520;10.528;2023-06-24T07:55:30;12.15;;;9.70;;
76380;SDS011;65202;52.520;10.528;2023-06-24T07:57:57;13.65;;;9.32;;
76380;SDS011;65202;52.520;10.528;2023-06-24T08:00:25;10.73;;;9.00;;
76380;SDS011;65202;52.520;10.528;2023-06-24T08:02:52;12.88;;;9.32;;
76380;SDS011;65202;52.520;10.528;2023-06-24T08:05:22;12.75;;;8.65;;
76380;SDS011;65202;52.520;10.528;2023-06-24T08:07:52;9.65;;;8.10;;
76380;SDS011;65202;52.520;10.528;2023-06-24T08:10:19;11.52;;;8.55;;
76380;SDS011;65202;52.520;10.528;2023-06-24T08:12:47;12.95;;;8.70;;
76380;SDS011;65202;52.520;10.528;2023-06-24T08:15:14;9.63;;;8.13;;
76380;SDS011;65202;52.520;10.528;2023-06-24T08:17:41;10.90;;;7.63;;
76380;SDS011;65202;52.520;10.528;2023-06-24T08:20:08;12.45;;;8.77;;
76380;SDS011;65202;52.520;10.528;2023-06-24T08:22:37;11.82;;;7.28;;
76380;SDS011;65202;52.520;10.528;2023-06-24T08:25:04;12.20;;;7.70;;
76380;SDS011;65202;52.520;10.528;2023-06-24T08:27:32;10.38;;;6.90;;
76380;SDS011;65202;52.520;10.528;2023-06-24T08:29:59;9.38;;;7.47;;
76380;SDS011;65202;52.520;10.528;2023-06-24T08:32:27;9.10;;;6.93;;
76380;SDS011;65202;52.520;10.528;2023-06-24T08:34:54;11.13;;;6.47;;
76380;SDS011;65202;52.520;10.528;2023-06-24T08:37:21;10.93;;;6.75;;
76380;SDS011;65202;52.520;10.528;2023-06-24T08:39:49;9.13;;;6.38;;
76380;SDS011;65202;52.520;10.528;2023-06-24T08:42:16;8.40;;;5.65;;
76380;SDS011;65202;52.520;10.528;2023-06-24T08:44:43;9.73;;;5.95;;
76380;SDS011;65202;52.520;10.528;2023-06-24T08:47:11;11.25;;;6.13;;
76380;SDS011;65202;52.520;10.528;2023-06-24T08:49:42;8.35;;;5.68;;
76380;SDS011;65202;52.520;10.528;2023-06-24T08:52:17;8.40;;;6.10;;
76380;SDS011;65202;52.520;10.528;2023-06-24T08:54:46;7.10;;;5.60;;
76380;SDS011;65202;52.520;10.528;2023-06-24T08:57:22;7.20;;;5.60;;
76380;SDS011;65202;52.520;10.528;2023-06-24T08:59:50;8.75;;;5.40;;
76380;SDS011;65202;52.520;10.528;2023-06-24T09:02:17;9.05;;;5.60;;
76380;SDS011;65202;52.520;10.528;2023-06-24T09:04:45;7.65;;;5.40;;
76380;SDS011;65202;52.520;10.528;2023-06-24T09:07:12;8.18;;;5.80;;
76380;SDS011;65202;52.520;10.528;2023-06-24T09:09:44;14.13;;;5.53;;
76380;SDS011;65202;52.520;10.528;2023-06-24T09:12:12;10.27;;;6.30;;
76380;SDS011;65202;52.520;10.528;2023-06-24T09:14:42;8.57;;;5.03;;
76380;SDS011;65202;52.520;10.528;2023-06-24T09:17:16;8.52;;;6.05;;
76380;SDS011;65202;52.520;10.528;2023-06-24T09:19:44;9.70;;;5.38;;
76380;SDS011;65202;52.520;10.528;2023-06-24T09:22:11;5.97;;;5.35;;
76380;SDS011;65202;52.520;10.528;2023-06-24T09:24:43;8.48;;;5.25;;
76380;SDS011;65202;52.520;10.528;2023-06-24T09:27:13;10.40;;;5.32;;
76380;SDS011;65202;52.520;10.528;2023-06-24T09:29:44;8.20;;;5.43;;
76380;SDS011;65202;52.520;10.528;2023-06-24T09:32:11;7.00;;;5.35;;
76380;SDS011;65202;52.520;10.528;2023-06-24T09:34:38;10.00;;;5.80;;
76380;SDS011;65202;52.520;10.528;2023-06-24T09:37:06;8.65;;;6.07;;
76380;SDS011;65202;52.520;10.528;2023-06-24T09:39:37;7.05;;;5.65;;
76380;SDS011;65202;52.520;10.528;2023-06-24T09:42:10;8.23;;;5.40;;
76380;SDS011;65202;52.520;10.528;2023-06-24T09:44:38;8.48;;;5.53;;
76380;SDS011;65202;52.520;10.528;2023-06-24T09:47:05;6.78;;;5.20;;
76380;SDS011;65202;52.520;10.528;2023-06-24T09:49:33;10.30;;;5.78;;
76380;SDS011;65202;52.520;10.528;2023-06-24T09:52:00;8.95;;;6.50;;
76380;SDS011;65202;52.520;10.528;2023-06-24T09:54:33;7.38;;;5.30;;
76380;SDS011;65202;52.520;10.528;2023-06-24T09:57:02;6.43;;;5.30;;
76380;SDS011;65202;52.520;10.528;2023-06-24T09:59:31;12.43;;;5.43;;
76380;SDS011;65202;52.520;10.528;2023-06-24T10:02:00;7.60;;;5.43;;
76380;SDS011;65202;52.520;10.528;2023-06-24T10:04:30;6.40;;;5.70;;
76380;SDS011;65202;52.520;10.528;2023-06-24T10:06:59;7.35;;;5.28;;
76380;SDS011;65202;52.520;10.528;2023-06-24T10:09:30;10.57;;;5.13;;
76380;SDS011;65202;52.520;10.528;2023-06-24T10:11:57;10.40;;;5.50;;
76380;SDS011;65202;52.520;10.528;2023-06-24T10:14:25;8.25;;;5.25;;
76380;SDS011;65202;52.520;10.528;2023-06-24T10:17:00;6.63;;;5.85;;
76380;SDS011;65202;52.520;10.528;2023-06-24T10:19:29;8.73;;;5.90;;
76380;SDS011;65202;52.520;10.528;2023-06-24T10:21:59;12.20;;;6.75;;
76380;SDS011;65202;52.520;10.528;2023-06-24T10:24:30;9.05;;;5.40;;
76380;SDS011;65202;52.520;10.528;2023-06-24T10:27:06;8.15;;;5.18;;
76380;SDS011;65202;52.520;10.528;2023-06-24T10:29:41;11.15;;;5.53;;
76380;SDS011;65202;52.520;10.528;2023-06-24T10:32:13;9.38;;;5.78;;
76380;SDS011;65202;52.520;10.528;2023-06-24T10:34:42;9.50;;;5.93;;
76380;SDS011;65202;52.520;10.528;2023-06-24T10:37:25;11.45;;;5.82;;
76380;SDS011;65202;52.520;10.528;2023-06-24T10:39:59;10.15;;;5.93;;
76380;SDS011;65202;52.520;10.528;2023-06-24T10:45:17;8.10;;;5.32;;
76380;SDS011;65202;52.520;10.528;2023-06-24T10:47:47;10.85;;;5.88;;
76380;SDS011;65202;52.520;10.528;2023-06-24T10:50:26;9.70;;;5.75;;
76380;SDS011;65202;52.520;10.528;2023-06-24T10:52:54;8.95;;;5.60;;
76380;SDS011;65202;52.520;10.528;2023-06-24T10:55:24;9.02;;;5.55;;
76380;SDS011;65202;52.520;10.528;2023-06-24T10:57:53;10.98;;;5.93;;
76380;SDS011;65202;52.520;10.528;2023-06-24T11:00:21;8.75;;;5.95;;
76380;SDS011;65202;52.520;10.528;2023-06-24T11:02:49;7.05;;;5.68;;
76380;SDS011;65202;52.520;10.528;2023-06-24T11:05:17;8.60;;;6.00;;
76380;SDS011;65202;52.520;10.528;2023-06-24T11:07:44;7.25;;;5.78;;
76380;SDS011;65202;52.520;10.528;2023-06-24T11:10:13;10.48;;;5.68;;
76380;SDS011;65202;52.520;10.528;2023-06-24T11:12:42;9.45;;;5.90;;
76380;SDS011;65202;52.520;10.528;2023-06-24T11:15:11;10.90;;;7.18;;
76380;SDS011;65202;52.520;10.528;2023-06-24T11:17:40;11.02;;;6.30;;
76380;SDS011;65202;52.520;10.528;2023-06-24T11:20:12;8.32;;;5.30;;
76380;SDS011;65202;52.520;10.528;2023-06-24T11:25:19;8.43;;;5.82;;
76380;SDS011;65202;52.520;10.528;2023-06-24T11:27:50;6.28;;;5.60;;
76380;SDS011;65202;52.520;10.528;2023-06-24T11:30:21;8.95;;;5.85;;
76380;SDS011;65202;52.520;10.528;2023-06-24T11:32:48;9.13;;;5.70;;
76380;SDS011;65202;52.520;10.528;2023-06-24T11:35:17;9.15;;;7.03;;
76380;SDS011;65202;52.520;10.528;2023-06-24T11:37:47;9.90;;;6.28;;
76380;SDS011;65202;52.520;10.528;2023-06-24T11:40:16;9.80;;;6.25;;
76380;SDS011;65202;52.520;10.528;2023-06-24T11:42:47;6.78;;;5.28;;
76380;SDS011;65202;52.520;10.528;2023-06-24T11:45:19;6.18;;;5.25;;
76380;SDS011;65202;52.520;10.528;2023-06-24T11:47:48;7.05;;;5.40;;
76380;SDS011;65202;52.520;10.528;2023-06-24T11:50:15;8.57;;;5.60;;
76380;SDS011;65202;52.520;10.528;2023-06-24T11:52:48;9.77;;;8.02;;
76380;SDS011;65202;52.520;10.528;2023-06-24T11:55:17;7.25;;;5.57;;
76380;SDS011;65202;52.520;10.528;2023-06-24T11:57:59;8.27;;;5.47;;
76380;SDS011;65202;52.520;10.528;2023-06-24T12:00:39;14.70;;;8.48;;
76380;SDS011;65202;52.520;10.528;2023-06-24T12:03:09;8.63;;;6.13;;
76380;SDS011;65202;52.520;10.528;2023-06-24T12:05:39;11.10;;;5.75;;
76380;SDS011;65202;52.520;10.528;2023-06-24T12:08:12;9.15;;;5.40;;
76380;SDS011;65202;52.520;10.528;2023-06-24T12:10:44;8.55;;;5.47;;
76380;SDS011;65202;52.520;10.528;2023-06-24T12:13:12;6.88;;;5.25;;
76380;SDS011;65202;52.520;10.528;2023-06-24T12:15:40;10.38;;;8.10;;
76380;SDS011;65202;52.520;10.528;2023-06-24T12:18:08;10.07;;;6.05;;
76380;SDS011;65202;52.520;10.528;2023-06-24T12:20:36;10.60;;;5.93;;
76380;SDS011;65202;52.520;10.528;2023-06-24T12:23:05;6.38;;;5.35;;
76380;SDS011;65202;52.520;10.528;2023-06-24T12:25:33;7.30;;;5.60;;
76380;SDS011;65202;52.520;10.528;2023-06-24T12:28:00;21.77;;;11.30;;
76380;SDS011;65202;52.520;10.528;2023-06-24T12:30:27;9.00;;;6.10;;
76380;SDS011;65202;52.520;10.528;2023-06-24T12:32:55;7.28;;;5.82;;
76380;SDS011;65202;52.520;10.528;2023-06-24T12:35:22;12.85;;;7.45;;
76380;SDS011;65202;52.520;10.528;2023-06-24T12:37:53;12.45;;;7.78;;
76380;SDS011;65202;52.520;10.528;2023-06-24T12:40:21;16.83;;;9.82;;
76380;SDS011;65202;52.520;10.528;2023-06-24T12:42:48;7.72;;;5.90;;
76380;SDS011;65202;52.520;10.528;2023-06-24T12:45:15;7.93;;;6.25;;
76380;SDS011;65202;52.520;10.528;2023-06-24T12:47:43;7.25;;;6.20;;
76380;SDS011;65202;52.520;10.528;2023-06-24T12:50:10;8.43;;;6.43;;
76380;SDS011;65202;52.520;10.528;2023-06-24T12:52:37;11.15;;;5.57;;
76380;SDS011;65202;52.520;10.528;2023-06-24T12:55:06;11.55;;;6.20;;
76380;SDS011;65202;52.520;10.528;2023-06-24T12:57:35;7.28;;;5.50;;
76380;SDS011;65202;52.520;10.528;2023-06-24T13:00:06;9.05;;;5.90;;
76380;SDS011;65202;52.520;10.528;2023-06-24T13:02:35;10.88;;;7.38;;
76380;SDS011;65202;52.520;10.528;2023-06-24T13:05:03;7.65;;;5.65;;
76380;SDS011;65202;52.520;10.528;2023-06-24T13:07:30;8.68;;;5.90;;
76380;SDS011;65202;52.520;10.528;2023-06-24T13:09:59;12.75;;;6.15;;
76380;SDS011;65202;52.520;10.528;2023-06-24T13:12:28;7.60;;;5.82;;
76380;SDS011;65202;52.520;10.528;2023-06-24T13:14:55;11.57;;;6.15;;
76380;SDS011;65202;52.520;10.528;2023-06-24T13:17:22;8.02;;;5.90;;
76380;SDS011;65202;52.520;10.528;2023-06-24T13:19:50;8.85;;;6.07;;
76380;SDS011;65202;52.520;10.528;2023-06-24T13:22:18;10.77;;;7.15;;
76380;SDS011;65202;52.520;10.528;2023-06-24T13:24:45;10.75;;;6.38;;
76380;SDS011;65202;52.520;10.528;2023-06-24T13:27:13;9.20;;;6.03;;
76380;SDS011;65202;52.520;10.528;2023-06-24T13:29:40;8.63;;;6.03;;
76380;SDS011;65202;52.520;10.528;2023-06-24T13:32:07;8.40;;;5.63;;
76380;SDS011;65202;52.520;10.528;2023-06-24T13:34:35;6.65;;;5.10;;
76380;SDS011;65202;52.520;10.528;2023-06-24T13:37:03;7.18;;;5.55;;
76380;SDS011;65202;52.520;10.528;2023-06-24T13:39:30;7.90;;;5.53;;
76380;SDS011;65202;52.520;10.528;2023-06-24T13:41:59;6.85;;;5.43;;
76380;SDS011;65202;52.520;10.528;2023-06-24T13:44:27;7.30;;;5.07;;
76380;SDS011;65202;52.520;10.528;2023-06-24T13:46:54;5.95;;;4.85;;
76380;SDS011;65202;52.520;10.528;2023-06-24T13:49:21;9.20;;;5.70;;
76380;SDS011;65202;52.520;10.528;2023-06-24T13:51:49;8.70;;;4.82;;
76380;SDS011;65202;52.520;10.528;2023-06-24T13:54:16;6.95;;;4.95;;
76380;SDS011;65202;52.520;10.528;2023-06-24T13:56:43;6.90;;;5.20;;
76380;SDS011;65202;52.520;10.528;2023-06-24T13:59:11;11.80;;;5.43;;
76380;SDS011;65202;52.520;10.528;2023-06-24T14:01:38;7.85;;;4.47;;
76380;SDS011;65202;52.520;10.528;2023-06-24T14:04:06;8.93;;;5.22;;
76380;SDS011;65202;52.520;10.528;2023-06-24T14:06:33;6.55;;;5.13;;
76380;SDS011;65202;52.520;10.528;2023-06-24T14:09:00;7.03;;;5.53;;
76380;SDS011;65202;52.520;10.528;2023-06-24T14:11:27;8.27;;;4.88;;
76380;SDS011;65202;52.520;10.528;2023-06-24T14:13:55;10.63;;;5.43;;
76380;SDS011;65202;52.520;10.528;2023-06-24T14:16:22;5.65;;;4.45;;
76380;SDS011;65202;52.520;10.528;2023-06-24T14:18:49;5.30;;;4.50;;
76380;SDS011;65202;52.520;10.528;2023-06-24T14:21:17;7.78;;;5.50;;
76380;SDS011;65202;52.520;10.528;2023-06-24T14:23:44;9.13;;;5.15;;
76380;SDS011;65202;52.520;10.528;2023-06-24T14:26:11;6.38;;;5.10;;
76380;SDS011;65202;52.520;10.528;2023-06-24T14:28:39;7.05;;;5.47;;
76380;SDS011;65202;52.520;10.528;2023-06-24T14:31:06;7.80;;;5.25;;
76380;SDS011;65202;52.520;10.528;2023-06-24T14:33:33;8.93;;;5.38;;
76380;SDS011;65202;52.520;10.528;2023-06-24T14:36:00;5.97;;;5.15;;
76380;SDS011;65202;52.520;10.528;2023-06-24T14:38:27;8.70;;;5.60;;
76380;SDS011;65202;52.520;10.528;2023-06-24T14:40:55;6.72;;;5.93;;
76380;SDS011;65202;52.520;10.528;2023-06-24T14:43:24;6.63;;;5.75;;
76380;SDS011;65202;52.520;10.528;2023-06-24T14:45:51;7.32;;;5.70;;
76380;SDS011;65202;52.520;10.528;2023-06-24T14:48:18;8.43;;;5.88;;
76380;SDS011;65202;52.520;10.528;2023-06-24T14:50:45;9.40;;;5.82;;